Tutti
Forbes Airport (Forbes, New South Wales) FRB Meteo
|
Forbes, New South Wales (FRB / YFBS)
Cielo sereno
Venti calmi |
|
8 °C |
There is no TAF data available at FRB. Showing TAF data for YPKS (24 mi NE).
Previsione area Terminal PKE (nessun dato per FRB)
| Here is the undecoded forecast: 2026/05/08 10:50 YPKS 081050Z 0811/0820 23005KT 9999 FEW040 FM081300 VRB03KT CAVOK PROB30 0814/0820 0500 FG BKN001 RMK T 10 08 06 05 Q 1024 1024 1024 1025 |
Storico METAR FRB recente
| Date | Time (AEST) | Flight Rules | Wind Dir. | Speed | Type | Height AGL (ft) | Visibility | Temp (°C) | Temp (°F) | Dew Point (°C) | Dew Point (°F) | Rel. Humid. | Pressure | Density Altitude | Remarks |
|---|---|---|---|---|---|---|---|---|---|---|---|---|---|---|---|
| 08-mag | 21:00 | n/a | Calm | Missing | 8° | 46° | 8° | 46° | 100% | 1024 mb | -399 ft | ||||
| 08-mag | 20:00 | n/a | 270° | 3 kt | Missing | 10° | 50° | 8° | 46° | 87% | 1024 mb | -159 ft | |||
| 08-mag | 19:00 | n/a | 260° | 4 kt | Missing | 12° | 53° | 9° | 48° | 82% | 1023 mb | 111 ft | |||
| 08-mag | 18:00 | n/a | 250° | 5 kt | Missing | 13° | 55° | 9° | 48° | 77% | 1023 mb | 231 ft | |||
| 08-mag | 17:00 | n/a | 230° | 7 kt | Missing | 14° | 57° | 8° | 46° | 67% | 1022 mb | 380 ft | |||
| 08-mag | 16:00 | n/a | 220° | 9 kt | Missing | 15° | 59° | 8° | 46° | 63% | 1022 mb | 500 ft | |||
| 08-mag | 15:00 | n/a | 220° | 11 kt | Missing | 16° | 60° | 8° | 46° | 59% | 1022 mb | 620 ft | |||
| 08-mag | 14:00 | n/a | 240° | 7 kt | Missing | 15° | 59° | 9° | 48° | 67% | 1022 mb | 500 ft | |||
| 08-mag | 13:00 | n/a | 260° | 6 kt | Missing | 14° | 57° | 9° | 48° | 72% | 1023 mb | 351 ft | |||
| 08-mag | 12:00 | n/a | 250° | 8 kt | Missing | 13° | 55° | 8° | 46° | 72% | 1024 mb | 201 ft | |||
| 08-mag | 11:00 | n/a | 270° | 7 kt | Missing | 12° | 53° | 7° | 44° | 71% | 1024 mb | 81 ft | |||
| 08-mag | 10:00 | n/a | 260° | 4 kt | Missing | 10° | 50° | 6° | 42° | 76% | 1025 mb | -188 ft | |||
| 08-mag | 09:00 | n/a | 250° | 5 kt | Missing | 8° | 46° | 5° | 41° | 81% | 1025 mb | -428 ft | |||
| 08-mag | 08:00 | n/a | 290° | 3 kt | Missing | 8° | 46° | 5° | 41° | 81% | 1024 mb | -399 ft | |||
| 08-mag | 07:00 | n/a | 320° | 2 kt | Missing | 5° | 41° | 4° | 39° | 93% | 1024 mb | -759 ft | |||
| 08-mag | 06:00 | n/a | 360° | 2 kt | Missing | 3° | 37° | 1° | 33° | 87% | 1024 mb | -999 ft | |||
| 08-mag | 05:00 | n/a | 260° | 6 kt | Missing | 6° | 42° | 3° | 37° | 81% | 1023 mb | -609 ft | |||
| 08-mag | 04:00 | n/a | 250° | 6 kt | Missing | 6° | 42° | 3° | 37° | 81% | 1023 mb | -609 ft | |||
| 08-mag | 03:00 | n/a | 270° | 6 kt | Missing | 6° | 42° | 2° | 35° | 75% | 1023 mb | -609 ft | |||
| 08-mag | 02:00 | n/a | 270° | 5 kt | Missing | 5° | 41° | 2° | 35° | 81% | 1024 mb | -759 ft | |||
| 08-mag | 01:00 | n/a | 280° | 2 kt | Missing | 5° | 41° | 2° | 35° | 81% | 1024 mb | -759 ft | |||
| 08-mag | 00:00 | n/a | 250° | 4 kt | Missing | 6° | 42° | 2° | 35° | 75% | 1024 mb | -639 ft | |||
| 07-mag | 23:00 | n/a | 230° | 5 kt | Missing | 7° | 44° | 2° | 35° | 70% | 1024 mb | -519 ft | |||
| 07-mag | 22:00 | n/a | 240° | 6 kt | Missing | 7° | 44° | 2° | 35° | 70% | 1024 mb | -519 ft |
Accedi
| Il tuo browser non è supportato. fai l'upgrade del tuo browser |
